Time;durP1;ratioP1;P1;durP2;ratioP2;P2;SDS_P1;SDS_P2;PMS_P1;PMS_P2;Temp;Humidity;BMP_temperature;BMP_pressure;BME280_temperature;BME280_humidity;BME280_pressure;Samples;Min_cycle;Max_cycle;Signal;HPM_P1;HPM_P2
2022/03/25 06:00:49;;;;;;;22.97;20.30;;;7.70;97.20;;;;;;1703125;29;20274;-74
2022/03/25 06:01:40;;;;;;;23.50;20.42;;;7.70;97.20;;;;;;1708085;29;20209;-73
2022/03/25 06:02:32;;;;;;;23.92;20.30;;;7.70;97.20;;;;;;1707987;29;20238;-73
2022/03/25 06:03:22;;;;;;;24.27;20.45;;;7.80;97.20;;;;;;1708130;29;20220;-73
2022/03/25 06:04:14;;;;;;;26.93;21.27;;;7.80;97.20;;;;;;1707807;29;20222;-74
2022/03/25 06:05:06;;;;;;;23.27;20.80;;;7.80;97.20;;;;;;1708003;29;20368;-73
2022/03/25 06:05:58;;;;;;;23.92;21.40;;;7.80;97.20;;;;;;1708030;29;20199;-73
2022/03/25 06:06:48;;;;;;;24.70;21.55;;;7.80;97.20;;;;;;1707714;28;20214;-73
2022/03/25 06:07:42;;;;;;;23.53;21.10;;;7.90;97.20;;;;;;1707956;29;20722;-74
2022/03/25 06:08:33;;;;;;;24.98;22.38;;;7.90;97.20;;;;;;1707591;29;20283;-73
2022/03/25 06:09:24;;;;;;;25.27;22.65;;;7.90;97.20;;;;;;1707941;29;20226;-73
2022/03/25 06:10:16;;;;;;;24.17;20.60;;;8.00;97.20;;;;;;1707941;29;20245;-73
2022/03/25 06:11:07;;;;;;;23.92;21.48;;;8.00;97.20;;;;;;1707973;29;20202;-73
2022/03/25 06:11:58;;;;;;;27.25;22.80;;;8.00;97.20;;;;;;1707974;29;20643;-73
2022/03/25 06:12:50;;;;;;;23.53;21.00;;;8.00;97.20;;;;;;1708010;29;20206;-73
2022/03/25 06:13:40;;;;;;;25.10;22.40;;;8.00;97.20;;;;;;1707731;29;20267;-74
2022/03/25 06:14:32;;;;;;;26.37;22.73;;;8.00;97.20;;;;;;1708102;29;20199;-73
2022/03/25 06:15:24;;;;;;;25.35;22.40;;;8.10;97.20;;;;;;1707937;29;20555;-73
2022/03/25 06:16:17;;;;;;;25.55;22.90;;;8.10;97.20;;;;;;1707914;29;20234;-74
2022/03/25 06:17:08;;;;;;;25.58;21.73;;;8.10;97.20;;;;;;1704962;29;20678;-74
2022/03/25 06:17:59;;;;;;;24.85;22.30;;;8.10;97.20;;;;;;1701300;29;20258;-73
2022/03/25 06:18:52;;;;;;;27.40;21.97;;;8.10;97.20;;;;;;1701182;29;20203;-74
2022/03/25 06:19:43;;;;;;;26.80;22.70;;;8.10;97.20;;;;;;1701235;29;20200;-75
2022/03/25 06:20:35;;;;;;;24.73;22.13;;;8.20;97.20;;;;;;1701357;29;20233;-74
2022/03/25 06:21:26;;;;;;;27.30;23.75;;;8.20;97.20;;;;;;1701365;29;20650;-73
2022/03/25 06:22:18;;;;;;;24.52;21.83;;;8.20;97.20;;;;;;1701241;29;20580;-74
2022/03/25 06:23:09;;;;;;;24.33;21.73;;;8.20;97.20;;;;;;1701423;29;20250;-74
2022/03/25 06:24:00;;;;;;;26.05;22.85;;;8.30;97.20;;;;;;1701253;29;20223;-74
2022/03/25 06:24:52;;;;;;;25.08;22.38;;;8.30;97.20;;;;;;1701348;29;20345;-76
2022/03/25 06:25:44;;;;;;;25.63;22.92;;;8.30;97.10;;;;;;1701365;29;20195;-74
2022/03/25 06:26:34;;;;;;;25.30;22.60;;;8.30;97.00;;;;;;1701121;29;20219;-73
2022/03/25 06:27:26;;;;;;;25.13;22.43;;;8.30;97.00;;;;;;1701119;29;20214;-73
2022/03/25 06:28:17;;;;;;;27.25;23.60;;;8.30;97.10;;;;;;1700842;29;20250;-73
2022/03/25 06:29:09;;;;;;;26.63;23.67;;;8.40;97.20;;;;;;1701216;29;20354;-73
2022/03/25 06:29:59;;;;;;;26.02;23.15;;;8.30;97.20;;;;;;1701173;29;20574;-73
2022/03/25 06:30:51;;;;;;;28.73;25.10;;;8.40;97.20;;;;;;1701299;29;20207;-73
2022/03/25 06:31:43;;;;;;;27.55;24.45;;;8.40;97.20;;;;;;1701176;29;20226;-73
2022/03/25 06:32:35;;;;;;;26.20;23.40;;;8.40;97.20;;;;;;1701166;29;20199;-73
2022/03/25 06:33:26;;;;;;;29.02;24.10;;;8.40;97.20;;;;;;1701272;29;20212;-73
2022/03/25 06:34:20;;;;;;;24.80;22.17;;;8.40;97.20;;;;;;1701211;29;20746;-73
2022/03/25 06:35:12;;;;;;;24.85;22.15;;;8.40;97.20;;;;;;1701257;29;20246;-73
2022/03/25 06:36:04;;;;;;;28.25;23.23;;;8.50;97.10;;;;;;1701088;29;20285;-73
2022/03/25 06:36:55;;;;;;;24.98;22.38;;;8.50;97.00;;;;;;1701163;29;20256;-73
2022/03/25 06:37:47;;;;;;;25.50;22.43;;;8.60;96.90;;;;;;1702248;29;20195;-73
2022/03/25 06:38:38;;;;;;;29.75;23.90;;;8.60;96.90;;;;;;1702815;29;20455;-73
2022/03/25 06:39:30;;;;;;;24.80;22.03;;;8.70;96.90;;;;;;1702533;29;20197;-72
2022/03/25 06:40:21;;;;;;;25.75;22.88;;;8.80;96.80;;;;;;1702465;29;20227;-73
2022/03/25 06:41:13;;;;;;;25.23;22.48;;;8.80;96.90;;;;;;1702540;29;20204;-72
2022/03/25 06:42:04;;;;;;;27.98;23.15;;;8.90;96.90;;;;;;1703169;29;20207;-73
2022/03/25 06:42:57;;;;;;;25.70;22.38;;;9.00;96.70;;;;;;1702607;29;20285;-73
2022/03/25 06:43:47;;;;;;;27.75;22.40;;;9.00;96.50;;;;;;1702737;29;20221;-73
2022/03/25 06:44:39;;;;;;;24.13;21.53;;;9.00;96.50;;;;;;1702996;29;20293;-73
2022/03/25 06:45:30;;;;;;;31.75;21.98;;;9.10;96.30;;;;;;1705184;29;20230;-73
2022/03/25 06:46:22;;;;;;;30.63;22.23;;;9.10;96.20;;;;;;1702318;29;20190;-73
2022/03/25 06:47:15;;;;;;;30.63;21.55;;;9.20;96.20;;;;;;1702357;29;20591;-73
2022/03/25 06:48:07;;;;;;;27.17;23.10;;;9.20;96.10;;;;;;1701491;29;20269;-72
2022/03/25 06:48:58;;;;;;;25.77;23.10;;;9.30;95.90;;;;;;1702749;29;20287;-73
2022/03/25 06:49:50;;;;;;;28.83;22.13;;;9.30;95.80;;;;;;1702617;29;20199;-73
2022/03/25 06:50:42;;;;;;;26.55;23.08;;;9.30;95.70;;;;;;1702798;29;20227;-74
2022/03/25 06:51:34;;;;;;;26.63;22.27;;;9.40;95.80;;;;;;1703729;29;20621;-74
2022/03/25 06:52:26;;;;;;;27.95;22.02;;;9.40;95.80;;;;;;1702375;29;20203;-74
2022/03/25 06:53:18;;;;;;;25.35;22.23;;;9.50;95.90;;;;;;1703617;29;20231;-74
2022/03/25 06:54:10;;;;;;;31.35;23.00;;;9.50;95.80;;;;;;1699891;29;20219;-74
2022/03/25 06:55:03;;;;;;;26.27;21.92;;;9.60;95.70;;;;;;1700070;29;20204;-74
2022/03/25 06:55:54;;;;;;;26.60;22.55;;;9.70;95.60;;;;;;1702570;29;20685;-74
2022/03/25 06:56:46;;;;;;;26.48;22.00;;;9.70;95.60;;;;;;1701858;29;20199;-74
2022/03/25 06:57:38;;;;;;;25.27;22.55;;;9.80;95.60;;;;;;1701626;29;20210;-74
2022/03/25 06:58:31;;;;;;;26.95;23.67;;;9.80;95.50;;;;;;1702355;29;20255;-74
2022/03/25 06:59:23;;;;;;;32.03;23.92;;;9.90;95.20;;;;;;1702500;29;20196;-74
2022/03/25 07:00:15;;;;;;;30.92;22.27;;;10.00;95.20;;;;;;1701597;29;20209;-74
2022/03/25 07:01:07;;;;;;;39.33;23.08;;;10.00;95.00;;;;;;1703120;29;20293;-74
2022/03/25 07:01:59;;;;;;;28.52;22.02;;;10.10;94.60;;;;;;1701523;29;20627;-74
2022/03/25 07:02:53;;;;;;;25.70;22.90;;;10.10;94.40;;;;;;1702232;29;20226;-74
2022/03/25 07:03:44;;;;;;;26.77;22.83;;;10.20;94.10;;;;;;1702644;29;20199;-74
2022/03/25 07:04:37;;;;;;;25.27;21.35;;;10.30;94.10;;;;;;1703185;29;20195;-74
2022/03/25 07:05:30;;;;;;;27.95;23.63;;;10.30;94.00;;;;;;1702833;29;20221;-74
2022/03/25 07:06:24;;;;;;;30.48;23.52;;;10.30;94.00;;;;;;1704286;29;20560;-74
2022/03/25 07:07:18;;;;;;;31.08;22.90;;;10.40;94.20;;;;;;1701649;29;20210;-74
2022/03/25 07:08:11;;;;;;;27.02;23.10;;;10.40;94.20;;;;;;1701776;29;20543;-74
2022/03/25 07:09:03;;;;;;;26.50;22.65;;;10.50;93.90;;;;;;1701483;29;20593;-74
2022/03/25 07:09:56;;;;;;;25.58;22.70;;;10.60;93.90;;;;;;1702192;29;20198;-74
2022/03/25 07:10:48;;;;;;;32.30;23.23;;;10.70;93.70;;;;;;1702207;29;20215;-74
2022/03/25 07:11:40;;;;;;;24.95;22.20;;;10.80;93.20;;;;;;1702197;29;20257;-74
2022/03/25 07:12:31;;;;;;;28.23;24.10;;;10.80;92.80;;;;;;1703238;29;20560;-74
2022/03/25 07:13:24;;;;;;;28.08;22.65;;;10.90;92.50;;;;;;1702741;29;20207;-74
2022/03/25 07:14:14;;;;;;;30.65;23.77;;;11.00;92.50;;;;;;1702755;29;20241;-74
2022/03/25 07:15:08;;;;;;;26.40;22.30;;;11.00;92.50;;;;;;1701612;29;20238;-74
2022/03/25 07:15:59;;;;;;;28.52;23.08;;;11.10;92.40;;;;;;1701175;29;20207;-74
2022/03/25 07:16:51;;;;;;;30.40;22.97;;;11.20;92.40;;;;;;1701885;29;20295;-74
2022/03/25 07:17:43;;;;;;;26.73;23.70;;;11.30;92.30;;;;;;1701760;29;20975;-75
2022/03/25 07:18:36;;;;;;;30.27;23.80;;;11.30;92.20;;;;;;1700597;29;20545;-74
2022/03/25 07:19:26;;;;;;;27.75;23.27;;;11.40;91.80;;;;;;1701574;29;20227;-74
2022/03/25 07:20:19;;;;;;;28.40;24.57;;;11.40;91.70;;;;;;1702342;29;20191;-74
2022/03/25 07:21:09;;;;;;;31.25;24.55;;;11.50;91.50;;;;;;1702145;29;20492;-69
2022/03/25 07:22:01;;;;;;;26.50;23.70;;;11.50;91.60;;;;;;1701205;29;20651;-69
2022/03/25 07:22:52;;;;;;;26.50;23.35;;;11.60;91.70;;;;;;1701923;29;20223;-68
2022/03/25 07:23:44;;;;;;;28.08;23.38;;;11.70;91.60;;;;;;1702358;29;20245;-69
2022/03/25 07:24:35;;;;;;;27.25;23.00;;;11.70;91.30;;;;;;1702082;29;20203;-69
2022/03/25 07:25:27;;;;;;;27.13;22.40;;;11.80;91.20;;;;;;1702892;29;20206;-68
2022/03/25 07:26:18;;;;;;;26.63;22.63;;;11.90;91.10;;;;;;1700766;29;20466;-68
2022/03/25 07:27:10;;;;;;;25.77;22.40;;;12.00;91.20;;;;;;1702150;29;20210;-69
2022/03/25 07:28:01;;;;;;;29.33;23.33;;;12.10;91.00;;;;;;1701777;29;20203;-68
2022/03/25 07:28:52;;;;;;;29.10;24.20;;;12.10;90.60;;;;;;1702920;29;20584;-68
2022/03/25 07:29:43;;;;;;;30.23;23.50;;;12.20;90.20;;;;;;1701739;29;20202;-69
2022/03/25 07:30:37;;;;;;;29.20;23.77;;;12.30;89.80;;;;;;1701393;29;20198;-69
2022/03/25 07:31:28;;;;;;;32.15;24.27;;;12.30;89.60;;;;;;1701979;29;20203;-69
2022/03/25 07:32:19;;;;;;;32.10;25.25;;;12.40;89.40;;;;;;1701911;29;20286;-69
2022/03/25 07:33:11;;;;;;;29.90;25.98;;;12.50;89.30;;;;;;1700579;29;20234;-69
2022/03/25 07:34:04;;;;;;;29.55;23.67;;;12.60;89.20;;;;;;1701556;29;20218;-69
2022/03/25 07:34:54;;;;;;;35.50;24.20;;;12.60;89.20;;;;;;1702213;29;20670;-69
2022/03/25 07:35:46;;;;;;;28.80;25.13;;;12.70;89.10;;;;;;1702493;29;20618;-69
2022/03/25 07:36:37;;;;;;;31.67;25.67;;;12.80;88.90;;;;;;1701236;29;20202;-69
2022/03/25 07:37:28;;;;;;;30.80;23.87;;;12.90;88.60;;;;;;1702812;29;20195;-68
2022/03/25 07:38:19;;;;;;;28.30;22.52;;;13.00;88.40;;;;;;1700533;29;20670;-68
2022/03/25 07:39:11;;;;;;;36.90;25.33;;;13.00;88.30;;;;;;1702548;29;20550;-68
2022/03/25 07:40:02;;;;;;;30.65;24.02;;;13.10;88.20;;;;;;1702320;29;20261;-69
2022/03/25 07:40:54;;;;;;;33.75;24.63;;;13.20;87.80;;;;;;1700958;29;20191;-68
2022/03/25 07:41:45;;;;;;;32.20;24.23;;;13.20;87.60;;;;;;1701492;29;20219;-69
2022/03/25 07:42:37;;;;;;;28.20;23.50;;;13.30;87.60;;;;;;1702933;29;20206;-69
2022/03/25 07:43:28;;;;;;;29.83;25.17;;;13.40;87.60;;;;;;1701788;29;20261;-69
2022/03/25 07:44:20;;;;;;;28.83;24.30;;;13.50;87.70;;;;;;1703151;29;20234;-69
2022/03/25 07:45:13;;;;;;;34.15;25.92;;;13.50;87.60;;;;;;1702661;29;20462;-69
2022/03/25 07:46:05;;;;;;;35.28;26.17;;;13.60;87.30;;;;;;1701984;29;20206;-69
2022/03/25 07:46:56;;;;;;;32.53;24.50;;;13.70;87.00;;;;;;1702139;29;20701;-69
2022/03/25 07:47:50;;;;;;;30.60;23.97;;;13.70;86.60;;;;;;1702848;29;20654;-69
2022/03/25 07:48:41;;;;;;;29.65;25.70;;;13.80;86.30;;;;;;1703028;29;20685;-69
2022/03/25 07:49:35;;;;;;;32.17;25.17;;;13.90;86.20;;;;;;1702004;29;20562;-69
2022/03/25 07:50:27;;;;;;;29.77;24.65;;;13.90;86.30;;;;;;1701516;29;20248;-69
2022/03/25 07:51:18;;;;;;;28.85;24.80;;;14.00;86.40;;;;;;1703815;29;20222;-70
2022/03/25 07:52:11;;;;;;;32.57;25.63;;;14.10;86.40;;;;;;1701823;29;21341;-69
2022/03/25 07:53:02;;;;;;;35.15;25.10;;;14.10;86.30;;;;;;1703360;29;20207;-69
2022/03/25 07:53:54;;;;;;;34.20;24.93;;;14.20;86.50;;;;;;1702147;29;20222;-70
2022/03/25 07:54:45;;;;;;;33.60;24.60;;;14.30;86.60;;;;;;1702063;29;20234;-69
2022/03/25 07:55:36;;;;;;;34.43;25.50;;;14.40;86.50;;;;;;1703042;29;20218;-69
2022/03/25 07:56:28;;;;;;;31.60;26.23;;;14.50;86.00;;;;;;1702733;29;20210;-69
2022/03/25 07:57:20;;;;;;;31.02;24.23;;;14.50;85.70;;;;;;1701712;29;20207;-69
2022/03/25 07:58:12;;;;;;;33.85;26.00;;;14.60;85.50;;;;;;1704087;29;20198;-69
2022/03/25 07:59:03;;;;;;;30.65;26.08;;;14.70;85.50;;;;;;1707188;29;20256;-69
2022/03/25 07:59:55;;;;;;;31.20;25.05;;;14.70;85.20;;;;;;1700552;29;20662;-69
2022/03/25 08:00:47;;;;;;;31.42;25.17;;;14.80;84.80;;;;;;1700606;29;20203;-70
2022/03/25 08:01:38;;;;;;;33.10;25.50;;;14.80;84.20;;;;;;1700539;29;20215;-69
2022/03/25 08:02:30;;;;;;;34.93;26.43;;;14.90;84.30;;;;;;1700668;29;20199;-69
2022/03/25 08:03:21;;;;;;;32.72;23.35;;;14.90;84.20;;;;;;1700458;29;20230;-69
2022/03/25 08:04:13;;;;;;;33.42;24.75;;;15.00;84.30;;;;;;1700549;29;20285;-69
2022/03/25 08:05:09;;;;;;;34.25;25.98;;;15.10;84.40;;;;;;1700535;29;20210;-69
2022/03/25 08:06:01;;;;;;;30.65;25.60;;;15.20;84.30;;;;;;1700533;29;20214;-70
2022/03/25 08:06:53;;;;;;;37.50;25.80;;;15.20;84.10;;;;;;1700670;29;20199;-70
2022/03/25 08:07:48;;;;;;;33.05;26.48;;;15.30;84.20;;;;;;1700575;29;20210;-70
2022/03/25 08:08:39;;;;;;;31.40;27.27;;;15.40;84.20;;;;;;1700194;29;20211;-69
2022/03/25 08:09:30;;;;;;;30.27;27.07;;;15.50;83.70;;;;;;1700574;29;20199;-69
2022/03/25 08:10:23;;;;;;;38.00;26.95;;;15.50;83.60;;;;;;1700548;29;20210;-70
2022/03/25 08:11:18;;;;;;;32.42;28.08;;;15.60;83.50;;;;;;1700725;29;20207;-69
2022/03/25 08:12:10;;;;;;;36.60;27.42;;;15.70;83.60;;;;;;1700676;29;20277;-70
2022/03/25 08:13:03;;;;;;;34.38;26.60;;;15.70;83.50;;;;;;1700569;29;20225;-69
2022/03/25 08:13:53;;;;;;;31.10;26.23;;;15.80;83.10;;;;;;1700417;29;20278;-69
2022/03/25 08:14:45;;;;;;;33.93;26.27;;;15.90;82.80;;;;;;1700556;29;20207;-70
2022/03/25 08:15:36;;;;;;;34.25;25.67;;;16.00;82.80;;;;;;1700505;29;20214;-70
2022/03/25 08:16:28;;;;;;;34.43;28.13;;;16.10;83.00;;;;;;1700612;29;20199;-70
2022/03/25 08:17:20;;;;;;;33.40;26.30;;;16.10;82.50;;;;;;1700548;29;20694;-69
2022/03/25 08:18:13;;;;;;;31.92;25.52;;;16.20;82.20;;;;;;1700298;29;20207;-69
2022/03/25 08:19:05;;;;;;;33.08;25.20;;;16.30;82.30;;;;;;1700699;29;20233;-70
2022/03/25 08:19:57;;;;;;;29.83;25.10;;;16.40;82.40;;;;;;1700535;29;20210;-69
2022/03/25 08:20:49;;;;;;;33.42;25.42;;;16.50;82.30;;;;;;1700511;29;20683;-70
2022/03/25 08:21:41;;;;;;;32.85;27.15;;;16.60;82.00;;;;;;1700573;29;20207;-70
2022/03/25 08:22:32;;;;;;;33.08;26.10;;;16.60;81.60;;;;;;1700552;29;20266;-69
2022/03/25 08:28:03;;;;;;;29.90;25.15;;;17.00;80.20;;;;;;1706885;29;20571;-69
2022/03/25 08:28:54;;;;;;;30.35;25.40;;;17.10;79.90;;;;;;1707152;29;20257;-69
2022/03/25 08:29:46;;;;;;;32.40;24.95;;;17.10;79.90;;;;;;1701794;29;20199;-69
2022/03/25 08:30:38;;;;;;;35.08;23.55;;;17.20;79.90;;;;;;1701874;29;20254;-69
2022/03/25 08:31:29;;;;;;;31.58;25.35;;;17.30;80.40;;;;;;1701882;29;20199;-70
2022/03/25 08:32:20;;;;;;;31.42;24.30;;;17.30;79.80;;;;;;1701814;29;20547;-70
2022/03/25 08:33:12;;;;;;;34.20;25.00;;;17.40;80.00;;;;;;1701853;29;20230;-69
2022/03/25 08:34:03;;;;;;;36.67;25.55;;;17.50;80.10;;;;;;1701853;29;20261;-70
2022/03/25 08:34:55;;;;;;;30.27;24.70;;;17.60;80.10;;;;;;1701911;29;20258;-70
2022/03/25 08:35:48;;;;;;;32.97;24.50;;;17.60;80.10;;;;;;1701904;29;20237;-69
2022/03/25 08:36:41;;;;;;;30.30;25.17;;;17.80;80.00;;;;;;1701845;29;20206;-70
2022/03/25 08:37:32;;;;;;;33.05;26.15;;;17.90;79.90;;;;;;1701871;29;20683;-69
2022/03/25 08:38:24;;;;;;;34.90;25.70;;;17.90;79.70;;;;;;1701519;29;20242;-70
2022/03/25 08:39:15;;;;;;;39.42;26.90;;;18.00;79.10;;;;;;1701772;29;20231;-70
2022/03/25 08:40:08;;;;;;;33.08;24.45;;;18.10;78.10;;;;;;1701816;29;20211;-70
2022/03/25 08:40:59;;;;;;;32.45;24.58;;;18.10;77.80;;;;;;1702860;29;20209;-70
2022/03/25 08:41:51;;;;;;;37.50;26.70;;;18.20;77.90;;;;;;1701828;29;20202;-70
2022/03/25 08:42:42;;;;;;;32.22;25.75;;;18.20;77.50;;;;;;1701771;29;20246;-70
2022/03/25 08:43:33;;;;;;;35.33;23.90;;;18.30;77.20;;;;;;1701708;29;20223;-69
2022/03/25 08:44:25;;;;;;;34.63;25.52;;;18.30;77.10;;;;;;1701818;29;20214;-70
2022/03/25 08:45:16;;;;;;;35.83;27.25;;;18.40;77.10;;;;;;1701782;29;20211;-70
2022/03/25 08:46:08;;;;;;;39.50;26.10;;;18.50;76.80;;;;;;1701732;29;20584;-69
2022/03/25 08:46:59;;;;;;;31.38;26.92;;;18.50;76.70;;;;;;1701819;29;20207;-70
2022/03/25 08:47:51;;;;;;;31.83;25.10;;;18.60;77.10;;;;;;1701878;29;20199;-70
2022/03/25 08:48:41;;;;;;;33.88;25.92;;;18.70;77.40;;;;;;1701396;29;20203;-70
2022/03/25 08:49:34;;;;;;;32.90;27.00;;;18.80;77.40;;;;;;1701819;29;20282;-70
2022/03/25 08:50:26;;;;;;;34.63;25.65;;;18.90;76.60;;;;;;1701829;29;20734;-70
2022/03/25 08:51:17;;;;;;;34.30;27.00;;;18.90;75.80;;;;;;1701794;29;20199;-70
2022/03/25 08:52:10;;;;;;;37.75;27.80;;;19.00;75.80;;;;;;1701748;29;20628;-70
2022/03/25 08:53:01;;;;;;;31.00;26.35;;;19.10;76.00;;;;;;1701720;29;20667;-70
2022/03/25 08:53:53;;;;;;;33.40;26.42;;;19.20;76.00;;;;;;1701660;29;20247;-70
2022/03/25 08:54:44;;;;;;;38.13;28.98;;;19.30;76.10;;;;;;1701721;29;20206;-70
2022/03/25 08:55:35;;;;;;;30.45;25.60;;;19.40;76.30;;;;;;1701729;29;20689;-69
2022/03/25 08:56:27;;;;;;;34.73;27.10;;;19.50;76.20;;;;;;1701682;29;20595;-69
2022/03/25 08:57:19;;;;;;;39.15;27.52;;;19.60;75.90;;;;;;1702692;29;20455;-69
2022/03/25 08:58:09;;;;;;;32.35;27.13;;;19.60;75.70;;;;;;1701367;29;20211;-70
2022/03/25 08:59:01;;;;;;;35.83;28.10;;;19.70;75.20;;;;;;1701668;29;20199;-70
2022/03/25 08:59:52;;;;;;;31.77;27.63;;;19.80;74.30;;;;;;1707611;29;20242;-70
2022/03/25 09:00:44;;;;;;;36.27;27.87;;;19.90;73.50;;;;;;1708425;29;20202;-70
2022/03/25 09:01:34;;;;;;;34.58;28.67;;;19.90;73.50;;;;;;1708334;29;20203;-70
2022/03/25 09:02:26;;;;;;;32.20;27.00;;;20.00;73.50;;;;;;1708302;29;20210;-70
2022/03/25 09:03:17;;;;;;;32.00;26.52;;;20.10;73.10;;;;;;1708215;29;20701;-69
2022/03/25 09:04:09;;;;;;;35.92;28.13;;;20.30;73.30;;;;;;1708318;29;20231;-70
2022/03/25 09:05:00;;;;;;;29.77;25.00;;;20.80;72.10;;;;;;1708320;29;20210;-70
2022/03/25 09:05:52;;;;;;;38.60;28.77;;;21.70;71.20;;;;;;1708328;29;20202;-70
2022/03/25 09:06:43;;;;;;;36.72;28.05;;;22.40;70.00;;;;;;1708256;29;21084;-70
2022/03/25 09:07:37;;;;;;;33.80;26.30;;;22.80;69.00;;;;;;1708285;29;20650;-70
2022/03/25 09:08:28;;;;;;;31.30;25.95;;;23.50;68.50;;;;;;1707909;29;20537;-70
2022/03/25 09:09:19;;;;;;;32.40;27.80;;;24.50;67.80;;;;;;1708149;29;20206;-69
2022/03/25 09:10:14;;;;;;;32.00;27.00;;;25.70;66.50;;;;;;1708362;29;20684;-70
2022/03/25 09:11:06;;;;;;;29.95;25.00;;;26.90;65.00;;;;;;1708311;29;20207;-70
2022/03/25 09:11:57;;;;;;;36.50;26.98;;;28.30;63.20;;;;;;1708192;29;20202;-70
2022/03/25 09:12:48;;;;;;;34.50;26.30;;;29.50;61.20;;;;;;1707972;29;20209;-70
2022/03/25 09:13:40;;;;;;;33.30;27.83;;;30.60;59.50;;;;;;1701348;29;20228;-70
2022/03/25 09:14:31;;;;;;;29.50;25.35;;;31.70;58.10;;;;;;1701736;29;20580;-70
2022/03/25 09:15:22;;;;;;;28.95;25.60;;;32.70;56.00;;;;;;1701593;29;20203;-70
2022/03/25 09:16:16;;;;;;;33.23;26.00;;;33.60;54.80;;;;;;1701679;29;20219;-70
2022/03/25 09:17:07;;;;;;;37.70;26.27;;;34.50;53.80;;;;;;1701703;29;20207;-71
2022/03/25 09:17:59;;;;;;;33.13;27.52;;;35.30;53.00;;;;;;1701598;29;20691;-70
2022/03/25 09:18:50;;;;;;;32.45;26.98;;;36.00;52.20;;;;;;1701264;29;20242;-68
2022/03/25 09:19:42;;;;;;;28.43;25.53;;;36.60;51.40;;;;;;1701454;29;20205;-68
2022/03/25 09:20:34;;;;;;;28.60;25.50;;;37.20;50.20;;;;;;1701571;29;20199;-68
2022/03/25 09:21:25;;;;;;;28.48;25.73;;;37.80;49.40;;;;;;1701622;29;20588;-68
2022/03/25 09:22:16;;;;;;;33.22;26.85;;;38.30;48.30;;;;;;1701566;29;20235;-71
2022/03/25 09:23:09;;;;;;;28.97;25.97;;;38.80;47.70;;;;;;1701651;29;20216;-68
2022/03/25 09:24:00;;;;;;;30.35;27.25;;;39.30;47.30;;;;;;1701409;29;20227;-68
2022/03/25 09:24:52;;;;;;;29.70;26.60;;;39.80;47.20;;;;;;1701634;29;20199;-71
2022/03/25 09:25:42;;;;;;;30.20;26.73;;;40.20;46.90;;;;;;1701514;29;20211;-68
2022/03/25 09:26:34;;;;;;;31.63;27.17;;;40.60;46.60;;;;;;1701596;29;20447;-71
2022/03/25 09:27:25;;;;;;;29.57;26.47;;;41.00;46.50;;;;;;1701555;29;20350;-71
2022/03/25 09:28:17;;;;;;;29.03;24.87;;;41.40;45.80;;;;;;1701222;29;20450;-71
2022/03/25 09:29:07;;;;;;;30.40;27.10;;;41.80;45.40;;;;;;1702434;29;20199;-71
2022/03/25 09:29:59;;;;;;;30.30;26.40;;;42.20;44.90;;;;;;1701532;29;20542;-69
2022/03/25 09:30:50;;;;;;;30.70;27.60;;;42.60;44.60;;;;;;1701475;29;20242;-68
2022/03/25 09:31:42;;;;;;;29.00;25.90;;;42.90;44.20;;;;;;1701417;29;20441;-69
2022/03/25 09:32:33;;;;;;;32.23;28.40;;;43.20;43.70;;;;;;1701466;29;20298;-68
2022/03/25 09:33:26;;;;;;;32.50;29.20;;;43.50;43.30;;;;;;1701497;29;20446;-68
2022/03/25 09:35:26;;;;;;;31.20;28.17;;;44.00;42.60;;;;;;1701623;29;20958;-71
2022/03/25 09:36:17;;;;;;;32.47;29.13;;;44.40;42.20;;;;;;1701485;29;20820;-68
2022/03/25 09:37:08;;;;;;;31.33;27.87;;;44.30;41.40;;;;;;1701470;29;20474;-71
2022/03/25 09:38:00;;;;;;;32.50;28.60;;;44.30;41.50;;;;;;1701376;29;20486;-71
2022/03/25 09:38:52;;;;;;;30.90;27.90;;;44.40;41.70;;;;;;1701407;29;20482;-71
2022/03/25 09:39:44;;;;;;;31.93;28.63;;;44.60;41.60;;;;;;1701305;29;20965;-71
2022/03/25 09:40:36;;;;;;;31.20;28.10;;;44.80;41.60;;;;;;1701461;29;20447;-69
2022/03/25 09:41:27;;;;;;;31.60;28.40;;;45.00;41.70;;;;;;1700958;29;20526;-70
2022/03/25 09:42:20;;;;;;;31.53;28.33;;;45.20;41.40;;;;;;1701158;29;20450;-71
2022/03/25 09:43:11;;;;;;;32.27;29.07;;;45.50;41.20;;;;;;1701566;29;20254;-71
2022/03/25 09:44:04;;;;;;;30.73;27.83;;;45.70;40.80;;;;;;1701364;29;20486;-68
2022/03/25 09:44:56;;;;;;;30.07;27.30;;;45.90;40.60;;;;;;1702417;29;20473;-69
2022/03/25 09:45:48;;;;;;;31.10;27.87;;;46.20;40.50;;;;;;1701447;29;20455;-68
2022/03/25 09:46:42;;;;;;;35.87;29.43;;;46.40;40.10;;;;;;1701406;29;20487;-69
2022/03/25 09:47:34;;;;;;;31.57;28.47;;;46.60;39.90;;;;;;1708019;29;20478;-69
2022/03/25 09:48:25;;;;;;;31.90;28.60;;;46.70;39.70;;;;;;1707016;29;20796;-71
2022/03/25 09:49:18;;;;;;;33.10;29.47;;;46.90;39.80;;;;;;1707926;29;20800;-71
2022/03/25 09:50:12;;;;;;;32.27;28.97;;;47.00;39.80;;;;;;1707997;29;20450;-68
2022/03/25 09:51:04;;;;;;;30.00;27.07;;;47.10;39.80;;;;;;1707990;29;20819;-69
2022/03/25 09:51:56;;;;;;;30.23;27.47;;;47.40;39.90;;;;;;1707932;29;20453;-71
2022/03/25 09:52:48;;;;;;;32.20;28.80;;;47.60;39.70;;;;;;1707928;29;20443;-71
2022/03/25 09:53:40;;;;;;;31.83;28.70;;;47.80;39.50;;;;;;1707844;29;20807;-71
2022/03/25 09:54:33;;;;;;;30.37;27.23;;;48.00;39.20;;;;;;1708016;29;20450;-71
2022/03/25 09:55:24;;;;;;;29.80;26.83;;;48.20;38.90;;;;;;1707968;29;20480;-71
2022/03/25 09:56:16;;;;;;;30.50;27.50;;;48.40;38.90;;;;;;1707862;29;20948;-71
2022/03/25 09:57:07;;;;;;;29.33;26.63;;;48.60;38.60;;;;;;1707971;29;20301;-71
2022/03/25 09:57:59;;;;;;;25.73;23.53;;;48.70;38.60;;;;;;1707962;29;20461;-71
2022/03/25 09:58:50;;;;;;;29.47;26.77;;;48.90;39.00;;;;;;1707620;29;20203;-71
2022/03/25 09:59:42;;;;;;;28.40;25.50;;;49.00;39.10;;;;;;1702847;29;20458;-71
2022/03/25 10:00:33;;;;;;;30.13;27.07;;;49.20;39.10;;;;;;1701320;29;20455;-71
2022/03/25 10:01:25;;;;;;;31.13;27.97;;;49.40;39.10;;;;;;1701360;29;20506;-71
2022/03/25 10:02:16;;;;;;;31.40;28.50;;;49.50;38.50;;;;;;1701319;29;20458;-71
2022/03/25 10:03:08;;;;;;;31.20;28.40;;;49.60;38.40;;;;;;1701397;29;20446;-71
2022/03/25 10:03:59;;;;;;;30.40;27.43;;;49.70;38.10;;;;;;1701066;29;20278;-71
2022/03/25 10:04:51;;;;;;;31.10;28.20;;;49.80;38.00;;;;;;1701329;29;20443;-71
2022/03/25 10:05:53;;;;;;;30.47;27.57;;;49.90;37.90;;;;;;1701289;29;20208;-71
2022/03/25 10:06:48;;;;;;;30.70;27.70;;;50.00;37.50;;;;;;1701295;29;20475;-71
2022/03/25 10:07:44;;;;;;;30.60;27.70;;;50.20;37.90;;;;;;1702514;29;20475;-71
2022/03/25 10:08:38;;;;;;;30.97;28.20;;;50.30;37.80;;;;;;1707587;29;20466;-71
2022/03/25 10:09:28;;;;;;;30.70;27.80;;;50.40;37.70;;;;;;1707758;29;20446;-71
2022/03/25 10:10:23;;;;;;;31.73;28.53;;;50.50;37.50;;;;;;1707741;29;20450;-71
2022/03/25 10:11:18;;;;;;;29.27;26.67;;;50.50;37.50;;;;;;1707854;29;20210;-71
2022/03/25 10:12:24;;;;;;;30.83;28.07;;;50.60;37.50;;;;;;1707867;29;20517;-71
2022/03/25 10:13:20;;;;;;;30.30;27.60;;;50.70;36.80;;;;;;1706175;29;20451;-71
2022/03/25 10:14:14;;;;;;;29.03;26.40;;;50.70;37.10;;;;;;1707754;29;21024;-71
2022/03/25 10:15:18;;;;;;;30.40;27.70;;;50.70;37.20;;;;;;1707983;29;20530;-71
2022/03/25 10:16:24;;;;;;;30.97;28.10;;;50.80;37.10;;;;;;1707958;29;20446;-71
2022/03/25 10:17:16;;;;;;;29.40;26.57;;;51.10;37.10;;;;;;1707854;29;20450;-71
2022/03/25 10:18:08;;;;;;;29.80;26.70;;;51.30;37.40;;;;;;1707504;29;20577;-71
2022/03/25 10:19:00;;;;;;;29.90;27.03;;;51.40;37.00;;;;;;1707835;29;20446;-71
2022/03/25 10:19:52;;;;;;;30.50;27.40;;;51.50;37.00;;;;;;1707741;29;20449;-71
2022/03/25 10:20:44;;;;;;;30.87;27.93;;;51.60;36.80;;;;;;1707786;29;20477;-70
2022/03/25 10:21:53;;;;;;;30.73;27.83;;;51.70;36.60;;;;;;1707884;29;20442;-71
2022/03/25 10:22:58;;;;;;;29.60;26.83;;;51.80;36.20;;;;;;1707880;29;20442;-71
2022/03/25 10:23:50;;;;;;;30.43;27.50;;;51.90;36.20;;;;;;1707669;29;20438;-71
2022/03/25 10:24:43;;;;;;;30.40;27.70;;;52.00;36.50;;;;;;1707773;29;20962;-71
2022/03/25 10:25:42;;;;;;;30.90;28.10;;;52.00;36.40;;;;;;1707740;29;20454;-71
2022/03/25 10:26:36;;;;;;;30.47;27.87;;;52.00;36.30;;;;;;1705799;29;20457;-71
2022/03/25 10:27:28;;;;;;;30.80;28.00;;;52.10;36.40;;;;;;1701153;29;20498;-71
2022/03/25 10:28:30;;;;;;;30.40;27.70;;;52.20;36.20;;;;;;1700896;29;20447;-71
2022/03/25 10:29:23;;;;;;;30.63;27.73;;;52.20;35.60;;;;;;1700954;29;20443;-71
2022/03/25 10:30:15;;;;;;;28.73;26.13;;;52.20;35.90;;;;;;1701253;29;20912;-71
2022/03/25 10:31:11;;;;;;;29.70;27.20;;;52.20;35.90;;;;;;1701112;29;20462;-71